Time;durP1;ratioP1;P1;durP2;ratioP2;P2;SDS_P1;SDS_P2;PMS_P1;PMS_P2;Temp;Humidity;BMP_temperature;BMP_pressure;BME280_temperature;BME280_humidity;BME280_pressure;Samples;Min_cycle;Max_cycle;Signal;HPM_P1;HPM_P2
2023/12/25 06:00:15;;;;;;;2.13;0.68;;;10.00;50.10;;;;;;5025381;23;20024;31
2023/12/25 06:02:18;;;;;;;1.85;0.60;;;10.00;50.00;;;;;;4083572;29;20048;-78
2023/12/25 06:04:20;;;;;;;1.88;0.70;;;10.00;50.30;;;;;;4086085;29;20051;-79
2023/12/25 06:06:22;;;;;;;2.22;0.70;;;10.00;50.20;;;;;;4089182;29;20052;-78
2023/12/25 06:08:23;;;;;;;1.52;0.60;;;10.00;50.30;;;;;;4085999;29;20107;-78
2023/12/25 06:10:25;;;;;;;1.30;0.50;;;10.00;50.10;;;;;;4086065;29;20104;-79
2023/12/25 06:12:26;;;;;;;1.80;0.70;;;9.90;49.90;;;;;;4085848;29;20477;-80
2023/12/25 06:14:28;;;;;;;1.90;0.65;;;9.90;49.80;;;;;;4086053;29;20099;-78
2023/12/25 06:16:29;;;;;;;1.55;0.60;;;9.90;49.70;;;;;;4085722;29;20047;-78
2023/12/25 06:18:32;;;;;;;1.63;0.43;;;9.90;49.80;;;;;;4085654;29;20095;-78
2023/12/25 06:20:34;;;;;;;1.15;0.60;;;9.90;49.80;;;;;;4084678;29;20142;-81
2023/12/25 06:22:35;;;;;;;1.95;0.68;;;9.90;49.80;;;;;;4085745;29;20465;-80
2023/12/25 06:24:37;;;;;;;2.00;0.65;;;9.90;50.10;;;;;;4085490;29;20131;-80
2023/12/25 06:26:38;;;;;;;1.58;0.70;;;9.90;49.90;;;;;;4085438;29;20482;-80
2023/12/25 06:28:40;;;;;;;1.98;0.70;;;9.90;50.00;;;;;;4085855;29;20104;-80
2023/12/25 06:30:42;;;;;;;1.88;0.60;;;9.80;49.80;;;;;;4085563;29;20047;-77
2023/12/25 06:32:44;;;;;;;2.17;0.60;;;9.90;49.70;;;;;;4085709;29;20171;-78
2023/12/25 06:34:48;;;;;;;1.98;0.82;;;9.90;49.90;;;;;;4085677;29;20051;-77
2023/12/25 06:36:48;;;;;;;2.85;0.68;;;9.90;49.70;;;;;;4084521;29;20104;-79
2023/12/25 06:38:50;;;;;;;1.77;0.60;;;9.90;49.80;;;;;;4085497;29;20116;-77
2023/12/25 06:40:52;;;;;;;1.85;0.80;;;9.80;49.80;;;;;;4085668;29;20115;-77
2023/12/25 06:42:54;;;;;;;1.50;0.60;;;9.80;49.90;;;;;;4084901;29;20139;-78
2023/12/25 06:44:55;;;;;;;2.00;0.60;;;9.90;49.90;;;;;;4085341;29;20051;-79
2023/12/25 06:46:57;;;;;;;1.27;0.57;;;9.90;49.50;;;;;;4082871;29;20040;-80
2023/12/25 06:48:59;;;;;;;1.10;0.57;;;9.90;49.50;;;;;;4085194;29;20048;-81
2023/12/25 06:51:02;;;;;;;0.82;0.45;;;9.90;49.40;;;;;;4085507;29;20050;-80
2023/12/25 06:53:04;;;;;;;1.27;0.50;;;9.80;49.60;;;;;;4085223;29;20470;-80
2023/12/25 06:55:08;;;;;;;1.92;0.70;;;9.90;49.70;;;;;;4085259;29;20107;-80
2023/12/25 06:57:11;;;;;;;1.38;0.60;;;9.80;49.40;;;;;;4084650;29;20055;-79
2023/12/25 06:59:13;;;;;;;1.73;0.63;;;9.80;49.30;;;;;;4091852;29;20079;-77
2023/12/25 07:01:14;;;;;;;2.30;0.73;;;9.80;49.50;;;;;;4083613;29;20055;-79
2023/12/25 07:03:15;;;;;;;2.10;0.70;;;9.80;49.40;;;;;;4100930;29;20822;-79
2023/12/25 07:05:18;;;;;;;2.53;0.80;;;9.80;49.50;;;;;;4097715;28;20097;-79
2023/12/25 07:07:21;;;;;;;2.47;0.70;;;9.80;49.30;;;;;;4094172;29;20048;-79
2023/12/25 07:09:22;;;;;;;1.75;0.70;;;9.80;49.20;;;;;;4085658;29;20458;-79
2023/12/25 07:11:23;;;;;;;1.83;0.70;;;9.80;49.20;;;;;;4091625;29;20078;-78
2023/12/25 07:13:25;;;;;;;2.33;0.60;;;9.80;49.30;;;;;;4099990;29;20405;-79
2023/12/25 07:15:28;;;;;;;1.98;0.70;;;9.80;49.40;;;;;;4100619;29;20449;-79
2023/12/25 07:17:28;;;;;;;2.58;0.60;;;9.80;49.30;;;;;;4087504;29;20118;-79
2023/12/25 07:19:30;;;;;;;2.15;0.70;;;9.80;49.30;;;;;;4100819;29;20102;-78
2023/12/25 07:21:31;;;;;;;1.95;0.75;;;9.70;49.20;;;;;;4100197;29;20457;-78
2023/12/25 07:23:34;;;;;;;3.38;0.90;;;9.70;49.10;;;;;;4093226;29;20049;-79
2023/12/25 07:25:36;;;;;;;2.00;0.80;;;9.70;49.10;;;;;;4100096;29;20106;-79
2023/12/25 07:27:40;;;;;;;2.30;0.90;;;9.70;48.90;;;;;;4100256;29;20047;-78
2023/12/25 07:29:41;;;;;;;1.63;0.60;;;9.70;48.80;;;;;;4100486;29;20049;-78
2023/12/25 07:31:43;;;;;;;2.08;0.70;;;9.70;48.80;;;;;;4100207;29;20485;-81
2023/12/25 07:33:44;;;;;;;1.38;0.60;;;9.70;48.70;;;;;;4099820;29;20114;-79
2023/12/25 07:35:46;;;;;;;2.35;0.75;;;9.70;48.90;;;;;;4100631;29;20090;-79
2023/12/25 07:37:48;;;;;;;2.50;0.70;;;9.70;48.70;;;;;;4100374;29;20477;-81
2023/12/25 07:39:51;;;;;;;2.55;0.80;;;9.70;48.60;;;;;;4100461;29;20492;-80
2023/12/25 07:41:55;;;;;;;2.05;0.80;;;9.70;48.60;;;;;;4099916;29;20118;-79
2023/12/25 07:44:00;;;;;;;1.90;0.70;;;9.70;48.80;;;;;;4100179;29;20106;-79
2023/12/25 07:46:02;;;;;;;1.77;0.60;;;9.70;48.80;;;;;;4100344;29;20047;-79
2023/12/25 07:48:04;;;;;;;2.60;0.90;;;9.60;48.90;;;;;;4100283;29;20307;-79
2023/12/25 07:50:08;;;;;;;2.63;0.80;;;9.60;48.80;;;;;;4100231;29;20055;-78
2023/12/25 07:52:09;;;;;;;1.83;0.70;;;9.60;48.70;;;;;;4081579;29;20139;-79
2023/12/25 07:54:11;;;;;;;2.83;0.88;;;9.60;48.70;;;;;;4099619;28;20072;-79
2023/12/25 07:56:15;;;;;;;1.73;0.70;;;9.60;48.80;;;;;;4099607;29;20098;-79
2023/12/25 07:58:16;;;;;;;3.50;0.88;;;9.60;48.60;;;;;;4096627;29;20047;-80
2023/12/25 08:00:18;;;;;;;5.53;2.40;;;9.60;48.80;;;;;;4100767;28;20098;-79
2023/12/25 08:02:20;;;;;;;5.97;2.35;;;9.60;49.40;;;;;;4105769;28;20098;-79
2023/12/25 08:04:21;;;;;;;2.80;0.80;;;9.60;48.60;;;;;;4116782;28;20043;-85
2023/12/25 08:06:23;;;;;;;2.22;0.90;;;9.60;48.70;;;;;;4104483;28;20102;-77
2023/12/25 08:08:27;;;;;;;2.30;0.80;;;9.60;48.60;;;;;;4099779;29;20059;-77
2023/12/25 08:10:28;;;;;;;2.70;0.80;;;9.60;48.60;;;;;;4100133;29;20039;-77
2023/12/25 08:12:31;;;;;;;2.35;0.82;;;9.60;48.30;;;;;;4103932;28;20047;-78
2023/12/25 08:14:33;;;;;;;2.03;0.80;;;9.70;48.50;;;;;;4116275;28;20051;-77
2023/12/25 08:16:35;;;;;;;1.92;0.80;;;9.60;48.00;;;;;;4102630;28;20047;-78
2023/12/25 08:18:37;;;;;;;1.92;0.80;;;9.70;48.10;;;;;;4087499;29;20050;-77
2023/12/25 08:20:39;;;;;;;2.10;0.70;;;9.70;48.80;;;;;;4087474;29;20408;-78
2023/12/25 08:22:41;;;;;;;1.83;0.65;;;9.70;48.10;;;;;;4086881;29;20166;-79
2023/12/25 08:24:44;;;;;;;2.00;0.80;;;9.70;48.20;;;;;;4085164;29;20119;-76
2023/12/25 08:26:46;;;;;;;1.65;0.70;;;9.70;48.20;;;;;;4084409;29;20048;-77
2023/12/25 08:28:52;;;;;;;1.63;0.70;;;9.80;48.10;;;;;;4086796;29;20047;-75
2023/12/25 08:30:54;;;;;;;1.63;0.60;;;9.80;48.30;;;;;;4096415;28;20130;-78
2023/12/25 08:32:56;;;;;;;1.70;0.70;;;9.80;48.40;;;;;;4100239;29;20054;-78
2023/12/25 08:34:58;;;;;;;2.97;0.80;;;9.80;48.20;;;;;;4099875;29;20051;-77
2023/12/25 08:36:59;;;;;;;2.35;0.70;;;9.80;48.30;;;;;;4099848;29;20054;-76
2023/12/25 08:39:01;;;;;;;2.08;0.77;;;9.80;48.60;;;;;;4100095;29;20047;-79
2023/12/25 08:41:04;;;;;;;2.13;0.80;;;9.80;48.60;;;;;;4099910;29;20103;-78
2023/12/25 08:43:06;;;;;;;1.92;0.68;;;9.90;49.00;;;;;;4099949;29;20054;-77
2023/12/25 08:45:10;;;;;;;2.90;0.90;;;9.90;48.90;;;;;;4100049;29;20139;-80
2023/12/25 08:47:11;;;;;;;2.95;1.17;;;9.90;49.30;;;;;;4097601;28;20051;-79
2023/12/25 08:49:13;;;;;;;3.72;0.77;;;9.90;49.20;;;;;;4100005;29;20382;-75
2023/12/25 08:51:15;;;;;;;1.88;0.80;;;9.90;49.50;;;;;;4098824;28;20052;-80
2023/12/25 08:53:17;;;;;;;2.33;0.90;;;9.90;49.80;;;;;;4088938;29;20441;-78
2023/12/25 08:55:18;;;;;;;2.38;0.93;;;9.90;49.70;;;;;;4101688;28;20043;-80
2023/12/25 08:57:20;;;;;;;2.03;0.80;;;9.90;49.90;;;;;;4103195;28;20114;-81
2023/12/25 08:59:22;;;;;;;2.17;0.75;;;9.90;50.20;;;;;;4104547;28;20103;-78
2023/12/25 09:01:25;;;;;;;2.38;0.90;;;9.90;50.30;;;;;;4099472;29;20055;-79
2023/12/25 09:03:27;;;;;;;1.92;0.80;;;9.90;50.40;;;;;;4100833;28;20051;-80
2023/12/25 09:05:28;;;;;;;2.35;0.77;;;9.90;50.60;;;;;;4105268;28;20047;-79
2023/12/25 09:07:30;;;;;;;3.15;0.80;;;9.90;50.80;;;;;;4118531;28;20051;-81
2023/12/25 09:09:31;;;;;;;2.50;0.90;;;9.90;51.20;;;;;;4110834;28;20051;-81
2023/12/25 09:11:32;;;;;;;2.25;0.88;;;10.00;50.90;;;;;;4096789;29;20167;-79
2023/12/25 09:13:34;;;;;;;2.30;0.82;;;10.00;51.30;;;;;;4101596;28;20051;-79
2023/12/25 09:15:36;;;;;;;3.70;1.17;;;10.00;51.10;;;;;;4098644;28;20051;-78
2023/12/25 09:17:40;;;;;;;2.42;0.82;;;10.00;51.30;;;;;;4098277;29;20103;-79
2023/12/25 09:19:40;;;;;;;2.10;0.70;;;10.10;51.50;;;;;;4089007;29;20047;-80
2023/12/25 09:21:42;;;;;;;2.10;0.90;;;10.10;51.30;;;;;;4092701;28;20099;-78
2023/12/25 09:23:44;;;;;;;2.60;0.90;;;10.10;51.20;;;;;;4100598;29;20051;-79
2023/12/25 09:25:47;;;;;;;1.85;0.70;;;10.10;51.60;;;;;;4096513;29;20047;-76
2023/12/25 09:27:49;;;;;;;2.53;0.85;;;10.10;51.90;;;;;;4100730;28;20079;-79
2023/12/25 09:29:49;;;;;;;1.85;0.75;;;10.10;51.80;;;;;;4101618;28;20051;-78
2023/12/25 09:31:52;;;;;;;2.00;0.80;;;10.10;52.00;;;;;;4102647;28;20544;-80
2023/12/25 09:33:55;;;;;;;2.33;0.90;;;10.10;52.10;;;;;;4111082;28;20043;-77
2023/12/25 09:35:57;;;;;;;2.97;1.30;;;10.20;52.10;;;;;;4117275;28;20444;-79
2023/12/25 09:37:59;;;;;;;2.63;0.90;;;10.30;52.10;;;;;;4115867;28;20097;-79
2023/12/25 09:40:01;;;;;;;3.42;1.00;;;10.30;52.10;;;;;;4117145;28;20055;-78
2023/12/25 09:42:04;;;;;;;2.40;0.93;;;10.30;51.80;;;;;;4104666;28;20083;-79
2023/12/25 09:44:07;;;;;;;3.13;0.93;;;10.30;52.00;;;;;;4101381;29;20055;-81
2023/12/25 09:46:11;;;;;;;2.30;0.90;;;10.40;52.20;;;;;;4101572;28;20059;-80
2023/12/25 09:48:12;;;;;;;2.60;0.90;;;10.30;51.90;;;;;;4099373;29;20495;-81
2023/12/25 09:50:16;;;;;;;2.45;0.80;;;10.40;52.10;;;;;;4101220;28;20480;-80
2023/12/25 09:52:18;;;;;;;2.20;0.90;;;10.40;52.00;;;;;;4100975;28;20054;-80
2023/12/25 09:54:19;;;;;;;2.50;0.80;;;10.40;52.00;;;;;;4101499;28;20453;-79
2023/12/25 09:56:23;;;;;;;2.17;0.70;;;10.40;52.20;;;;;;4100800;29;20043;-80
2023/12/25 09:58:24;;;;;;;3.50;0.82;;;10.40;52.30;;;;;;4110937;28;20539;-79
2023/12/25 10:00:27;;;;;;;3.03;0.82;;;10.40;52.20;;;;;;4112701;28;20043;-80
2023/12/25 10:02:29;;;;;;;1.77;0.80;;;10.40;52.30;;;;;;4087598;28;20062;-78
2023/12/25 10:04:31;;;;;;;2.95;1.15;;;10.50;52.30;;;;;;4099124;29;20051;-78
2023/12/25 10:06:35;;;;;;;3.95;1.23;;;10.60;52.40;;;;;;4099210;29;20111;-79
2023/12/25 10:08:36;;;;;;;2.33;0.98;;;10.60;52.60;;;;;;4098503;29;20047;-80
2023/12/25 10:10:38;;;;;;;2.40;0.90;;;10.60;52.60;;;;;;4099513;29;20050;-81
2023/12/25 10:12:44;;;;;;;2.67;0.98;;;10.60;52.50;;;;;;4098624;29;20055;-80
2023/12/25 10:14:46;;;;;;;5.47;2.50;;;10.60;52.70;;;;;;4099061;29;20503;-80
2023/12/25 10:16:48;;;;;;;2.17;0.80;;;10.60;52.70;;;;;;4097470;28;20114;-79
2023/12/25 10:18:50;;;;;;;2.38;0.90;;;10.60;53.40;;;;;;4097558;29;20106;-78
2023/12/25 10:20:59;;;;;;;3.72;1.35;;;10.60;53.10;;;;;;4098127;28;20051;-79
2023/12/25 10:23:12;;;;;;;4.13;0.77;;;10.60;53.20;;;;;;4099002;29;20048;-81
2023/12/25 10:25:16;;;;;;;2.80;0.90;;;10.70;53.50;;;;;;4098541;29;20135;-77
2023/12/25 10:27:18;;;;;;;2.00;0.73;;;10.60;53.50;;;;;;4098790;29;20102;-78
2023/12/25 10:29:20;;;;;;;2.72;0.65;;;10.60;53.80;;;;;;4098610;29;20055;-80
2023/12/25 10:31:28;;;;;;;2.03;0.80;;;10.50;54.00;;;;;;4098645;29;20055;-78
2023/12/25 10:33:31;;;;;;;3.25;1.00;;;10.50;54.40;;;;;;4098646;29;20512;-80
2023/12/25 10:35:32;;;;;;;2.80;0.82;;;10.50;54.70;;;;;;4098879;29;20095;-78
2023/12/25 10:37:37;;;;;;;1.98;0.70;;;10.60;55.00;;;;;;4098815;28;20066;-79
2023/12/25 10:39:40;;;;;;;2.67;0.80;;;10.70;54.90;;;;;;4100543;29;20102;-79
2023/12/25 10:41:43;;;;;;;2.75;0.82;;;10.70;54.70;;;;;;4098277;29;20091;-76
2023/12/25 10:43:52;;;;;;;2.03;0.82;;;10.80;55.00;;;;;;4097991;29;20055;-80
2023/12/25 10:45:56;;;;;;;2.70;0.90;;;10.80;55.10;;;;;;4098490;29;20051;-81
2023/12/25 10:48:02;;;;;;;2.33;0.88;;;10.80;55.30;;;;;;4098381;29;20102;-79
2023/12/25 10:50:05;;;;;;;2.00;0.80;;;10.90;55.80;;;;;;4098113;29;20717;-79
2023/12/25 10:52:08;;;;;;;3.42;0.80;;;10.90;55.70;;;;;;4098300;28;20091;-79
2023/12/25 10:54:12;;;;;;;3.00;0.90;;;11.00;55.80;;;;;;4098216;29;20410;-79
2023/12/25 10:56:16;;;;;;;2.40;1.00;;;11.10;55.90;;;;;;4098662;29;20468;-80
2023/12/25 10:58:19;;;;;;;1.92;0.88;;;11.20;56.20;;;;;;4097725;29;20051;-74
2023/12/25 11:00:23;;;;;;;2.47;0.88;;;11.30;56.70;;;;;;4096514;29;20043;-77
2023/12/25 11:02:25;;;;;;;2.25;0.80;;;11.40;56.10;;;;;;4097729;29;20085;-79
2023/12/25 11:04:28;;;;;;;1.75;0.70;;;11.40;56.10;;;;;;4097586;29;20039;-78
2023/12/25 11:06:30;;;;;;;2.42;0.70;;;11.40;56.30;;;;;;4097617;29;20106;-80
2023/12/25 11:08:32;;;;;;;2.30;0.80;;;11.40;56.30;;;;;;4097190;28;20461;-80
2023/12/25 11:10:35;;;;;;;2.33;0.68;;;11.40;56.60;;;;;;4097682;29;20050;-80
2023/12/25 11:12:39;;;;;;;2.38;0.73;;;11.40;56.90;;;;;;4097662;29;20217;-80
2023/12/25 11:14:41;;;;;;;3.20;0.90;;;11.40;57.10;;;;;;4097313;29;20051;-78
2023/12/25 11:16:43;;;;;;;4.78;1.98;;;11.40;57.20;;;;;;4096426;29;20106;-81
2023/12/25 11:18:49;;;;;;;2.03;0.70;;;11.50;57.30;;;;;;4093519;29;20131;-78
2023/12/25 11:21:04;;;;;;;3.58;0.82;;;11.60;57.30;;;;;;4097846;29;20114;-79
2023/12/25 11:23:06;;;;;;;;;;;11.60;57.50;;;;;;4097424;29;20422;-77
2023/12/25 11:25:14;;;;;;;3.30;0.80;;;11.70;57.70;;;;;;4097425;29;19922;-79
2023/12/25 11:27:17;;;;;;;2.08;0.65;;;11.70;58.10;;;;;;4097267;29;20051;-79
2023/12/25 11:29:21;;;;;;;1.88;0.80;;;11.70;58.10;;;;;;4097184;28;20082;-80
2023/12/25 11:31:23;;;;;;;2.80;0.88;;;11.60;58.50;;;;;;4097550;29;20115;-79
2023/12/25 11:33:28;;;;;;;1.38;0.60;;;11.60;59.00;;;;;;4097745;29;20093;-80
2023/12/25 11:35:32;;;;;;;1.83;0.80;;;11.70;58.90;;;;;;4097683;29;20051;-79
2023/12/25 11:37:34;;;;;;;1.70;0.50;;;11.70;59.00;;;;;;4097288;28;20047;-79
2023/12/25 11:39:37;;;;;;;1.55;0.57;;;11.80;59.20;;;;;;4097245;29;20047;-79
2023/12/25 11:41:38;;;;;;;2.25;0.85;;;11.80;59.40;;;;;;4097699;29;20055;-77
2023/12/25 11:43:42;;;;;;;1.48;0.50;;;11.90;59.50;;;;;;4097645;29;20078;-78
2023/12/25 11:45:46;;;;;;;1.92;0.70;;;11.90;59.40;;;;;;4097193;29;20083;-77
2023/12/25 11:47:49;;;;;;;1.95;0.63;;;11.90;59.50;;;;;;4097394;29;20051;-80
2023/12/25 11:49:51;;;;;;;1.92;0.80;;;11.90;59.80;;;;;;4097782;29;20134;-80
2023/12/25 11:51:53;;;;;;;2.20;0.63;;;11.90;59.90;;;;;;4097818;28;20051;-79
2023/12/25 11:53:59;;;;;;;1.27;0.50;;;11.80;60.50;;;;;;4097370;29;20457;-80
2023/12/25 11:56:00;;;;;;;;;;;11.80;60.60;;;;;;4097464;29;20095;-80
2023/12/25 11:58:05;;;;;;;1.42;0.60;;;11.90;60.70;;;;;;4098289;29;19930;-78
2023/12/25 12:00:15;;;;;;;2.03;0.80;;;11.80;61.00;;;;;;4097676;29;20051;-78
2023/12/25 12:02:19;;;;;;;2.13;0.60;;;11.90;61.10;;;;;;4080858;29;20477;-77
2023/12/25 12:04:25;;;;;;;1.75;0.70;;;11.90;61.30;;;;;;4081437;29;20090;-81
2023/12/25 12:06:26;;;;;;;;;;;12.00;61.30;;;;;;4081806;29;20063;-78
2023/12/25 12:08:28;;;;;;;6.53;3.05;;;12.00;61.20;;;;;;4081486;29;20033;-75
2023/12/25 12:10:28;;;;;;;2.28;0.80;;;11.90;61.60;;;;;;4081483;29;20079;-78
2023/12/25 12:12:30;;;;;;;1.85;0.70;;;12.10;61.80;;;;;;4081044;29;20052;-78
2023/12/25 12:14:32;;;;;;;1.45;0.60;;;12.20;61.60;;;;;;4081107;29;20386;-78
2023/12/25 12:16:35;;;;;;;2.10;0.50;;;12.10;61.90;;;;;;4081141;29;20443;-77
2023/12/25 12:18:38;;;;;;;2.25;0.70;;;12.10;61.90;;;;;;4079474;29;20052;-80
2023/12/25 12:20:39;;;;;;;1.88;0.47;;;12.10;62.00;;;;;;4081393;29;20055;-79
2023/12/25 12:22:41;;;;;;;2.08;0.55;;;12.20;62.20;;;;;;4080926;29;20044;-78
2023/12/25 12:24:42;;;;;;;1.08;0.47;;;12.40;62.40;;;;;;4081081;29;20541;-81
2023/12/25 12:26:44;;;;;;;1.67;0.60;;;12.40;61.50;;;;;;4081123;29;20051;-80
2023/12/25 12:28:46;;;;;;;1.85;0.82;;;12.40;61.80;;;;;;4081105;29;20051;-80
2023/12/25 12:30:48;;;;;;;1.60;0.60;;;12.40;61.90;;;;;;4081487;29;20542;-81
2023/12/25 12:32:51;;;;;;;2.55;0.75;;;12.50;61.40;;;;;;4081774;29;20158;-81
2023/12/25 12:34:54;;;;;;;2.03;0.70;;;12.40;60.70;;;;;;4081333;29;20387;-79
2023/12/25 12:36:59;;;;;;;2.30;0.90;;;12.30;61.10;;;;;;4081279;29;20100;-80
2023/12/25 12:39:00;;;;;;;2.45;0.57;;;12.30;61.40;;;;;;4081177;29;20087;-78
2023/12/25 12:41:02;;;;;;;1.45;0.50;;;12.20;62.00;;;;;;4084043;29;20043;-80
2023/12/25 12:43:06;;;;;;;3.38;0.68;;;12.20;62.60;;;;;;4084596;29;20107;-79
2023/12/25 12:45:10;;;;;;;2.67;0.80;;;12.30;62.10;;;;;;4084482;29;20051;-80
2023/12/25 12:47:10;;;;;;;1.45;0.50;;;12.30;62.10;;;;;;4084833;29;20470;-81
2023/12/25 12:49:13;;;;;;;4.93;2.25;;;12.40;61.50;;;;;;4084166;29;20108;-80
2023/12/25 12:51:16;;;;;;;1.48;0.60;;;12.50;61.30;;;;;;4085797;29;20055;-84
2023/12/25 12:53:17;;;;;;;1.73;0.57;;;12.60;61.30;;;;;;4085932;29;20103;-85
2023/12/25 12:55:19;;;;;;;1.50;0.60;;;12.60;62.30;;;;;;4085546;29;20059;-81
2023/12/25 12:57:21;;;;;;;1.92;0.60;;;12.70;62.30;;;;;;4085755;29;20501;-77
2023/12/25 12:59:23;;;;;;;2.22;0.90;;;12.60;63.00;;;;;;4086983;29;20054;-80
2023/12/25 13:01:29;;;;;;;1.83;0.50;;;12.70;63.40;;;;;;4100999;28;20088;-80
2023/12/25 13:03:31;;;;;;;0.70;0.30;;;12.60;63.90;;;;;;4115736;29;20060;-80
2023/12/25 13:05:33;;;;;;;3.20;0.85;;;12.40;64.20;;;;;;4115059;29;20102;-80
2023/12/25 13:07:35;;;;;;;2.17;0.60;;;12.40;64.80;;;;;;4113803;29;20083;-79
2023/12/25 13:09:37;;;;;;;1.90;0.63;;;12.40;65.10;;;;;;4112666;29;20137;-80
2023/12/25 13:11:39;;;;;;;1.50;0.52;;;12.10;66.10;;;;;;4105152;29;20070;-79
2023/12/25 13:13:41;;;;;;;1.08;0.40;;;12.10;66.50;;;;;;4102544;29;20043;-79
2023/12/25 13:15:42;;;;;;;0.88;0.40;;;12.30;66.20;;;;;;4104955;29;20114;-77
2023/12/25 13:17:44;;;;;;;0.90;0.40;;;12.40;65.50;;;;;;4101800;29;20043;-78
2023/12/25 13:19:45;;;;;;;1.25;0.47;;;12.30;65.90;;;;;;4100249;29;20066;-79
2023/12/25 13:21:48;;;;;;;2.70;1.30;;;12.30;66.70;;;;;;4102837;29;20130;-79
2023/12/25 13:23:51;;;;;;;2.60;1.00;;;12.40;65.70;;;;;;4100613;29;20420;-78
2023/12/25 13:25:53;;;;;;;1.40;0.50;;;12.40;65.70;;;;;;4099487;29;20051;-80
2023/12/25 13:27:55;;;;;;;2.08;0.70;;;12.20;66.10;;;;;;4100216;29;20055;-80
2023/12/25 13:29:57;;;;;;;2.17;0.80;;;12.30;66.60;;;;;;4100019;29;20130;-80
2023/12/25 13:31:59;;;;;;;1.33;0.50;;;12.40;66.30;;;;;;4099754;29;20103;-81
2023/12/25 13:33:59;;;;;;;0.80;0.30;;;12.50;65.80;;;;;;4099482;29;20119;-76
2023/12/25 13:36:01;;;;;;;1.85;0.60;;;12.50;65.90;;;;;;4099823;29;20504;-79
2023/12/25 13:38:03;;;;;;;1.20;0.50;;;12.50;65.60;;;;;;4098866;29;20043;-79
2023/12/25 13:40:08;;;;;;;1.38;0.50;;;12.50;65.90;;;;;;4099518;28;20047;-79
2023/12/25 13:42:09;;;;;;;1.45;0.60;;;12.50;66.40;;;;;;4099350;29;20051;-77
2023/12/25 13:44:11;;;;;;;1.33;0.52;;;12.40;66.60;;;;;;4098527;29;20051;-79
2023/12/25 13:46:13;;;;;;;1.67;0.60;;;12.20;67.40;;;;;;4099352;29;20756;-80
2023/12/25 13:48:15;;;;;;;1.27;0.50;;;12.30;67.60;;;;;;4099512;29;20134;-77
2023/12/25 13:50:17;;;;;;;1.33;0.55;;;12.10;67.70;;;;;;4098914;29;20063;-79
2023/12/25 13:52:18;;;;;;;1.27;0.40;;;12.20;68.10;;;;;;4099252;28;20397;-77
2023/12/25 13:54:20;;;;;;;1.30;0.45;;;12.20;68.10;;;;;;4099417;29;20107;-77
2023/12/25 13:56:25;;;;;;;1.35;0.60;;;12.10;68.10;;;;;;4099382;29;20478;-79
2023/12/25 13:58:26;;;;;;;1.45;0.45;;;12.10;68.10;;;;;;4099407;29;20417;-79
2023/12/25 14:00:27;;;;;;;1.33;0.47;;;12.20;68.20;;;;;;4099048;28;20043;-79
2023/12/25 14:02:29;;;;;;;1.45;0.50;;;12.20;68.00;;;;;;4102270;28;20484;-82
2023/12/25 14:04:31;;;;;;;0.77;0.40;;;12.20;67.90;;;;;;4109403;28;20055;-79
2023/12/25 14:06:33;;;;;;;0.98;0.40;;;12.10;68.40;;;;;;4105686;28;20581;-80
2023/12/25 14:08:34;;;;;;;1.70;0.60;;;12.10;68.50;;;;;;4109055;28;20066;-82
2023/12/25 14:10:36;;;;;;;2.22;0.57;;;12.10;68.60;;;;;;4100710;28;20047;-81
2023/12/25 14:12:39;;;;;;;1.63;0.60;;;12.00;68.90;;;;;;4098896;28;20102;-81
2023/12/25 14:14:41;;;;;;;2.03;0.60;;;12.10;68.90;;;;;;4099174;29;20058;-81
2023/12/25 14:16:43;;;;;;;1.75;0.60;;;12.10;68.80;;;;;;4099446;28;20114;-81
2023/12/25 14:18:45;;;;;;;1.13;0.47;;;12.10;68.80;;;;;;4112036;28;20042;-80
2023/12/25 14:20:46;;;;;;;1.65;0.50;;;12.00;69.30;;;;;;4116461;28;20047;-74
2023/12/25 14:22:48;;;;;;;2.10;0.75;;;12.00;70.00;;;;;;4115120;28;20122;-77
2023/12/25 14:24:50;;;;;;;1.77;0.50;;;12.00;69.90;;;;;;4114611;28;20055;-77
2023/12/25 14:26:52;;;;;;;1.02;0.50;;;12.10;69.80;;;;;;4114901;28;20054;-80
2023/12/25 14:28:55;;;;;;;1.05;0.45;;;12.20;69.60;;;;;;4113326;28;20051;-80
2023/12/25 14:30:56;;;;;;;2.03;0.70;;;12.10;69.60;;;;;;4107584;28;20123;-77
2023/12/25 14:32:58;;;;;;;1.38;0.57;;;12.10;69.60;;;;;;4100178;28;20434;-79
2023/12/25 14:35:01;;;;;;;0.80;0.50;;;12.00;69.70;;;;;;4098691;29;20083;-78
2023/12/25 14:37:03;;;;;;;2.83;0.60;;;12.10;69.90;;;;;;4098359;29;20047;-79
2023/12/25 14:39:05;;;;;;;2.13;0.60;;;12.10;69.90;;;;;;4099898;28;20122;-80
2023/12/25 14:41:06;;;;;;;2.75;0.68;;;12.10;69.90;;;;;;4114527;28;20062;-76
2023/12/25 14:43:08;;;;;;;1.65;0.60;;;12.00;70.20;;;;;;4114573;28;20099;-81
2023/12/25 14:45:12;;;;;;;2.42;0.65;;;11.90;70.90;;;;;;4114447;28;20079;-79
2023/12/25 14:47:14;;;;;;;1.42;0.60;;;12.00;70.90;;;;;;4114467;28;20050;-77
2023/12/25 14:49:17;;;;;;;1.85;0.70;;;12.00;70.90;;;;;;4114260;28;20385;-77
2023/12/25 14:51:21;;;;;;;1.60;0.60;;;12.00;71.20;;;;;;4109363;28;20050;-77
2023/12/25 14:53:23;;;;;;;1.92;0.68;;;12.00;71.00;;;;;;4106195;28;20543;-79
2023/12/25 14:55:24;;;;;;;2.08;0.73;;;12.00;70.80;;;;;;4114295;28;20507;-81
2023/12/25 14:57:26;;;;;;;2.28;1.00;;;12.00;70.60;;;;;;4114187;28;20086;-80
2023/12/25 14:59:28;;;;;;;2.13;0.90;;;12.00;70.70;;;;;;4103845;28;20527;-79
2023/12/25 15:01:31;;;;;;;3.63;1.30;;;12.20;70.10;;;;;;4109430;28;20109;-76
2023/12/25 15:03:34;;;;;;;7.68;4.88;;;12.70;69.00;;;;;;4105200;28;20115;-77
2023/12/25 15:05:37;;;;;;;3.92;1.30;;;14.20;65.00;;;;;;4098124;29;20721;-77
2023/12/25 15:07:39;;;;;;;3.65;1.50;;;15.70;59.20;;;;;;4109816;28;20078;-76
2023/12/25 15:09:40;;;;;;;1.88;0.60;;;14.90;59.30;;;;;;4114606;28;20050;-78
2023/12/25 15:11:42;;;;;;;2.85;1.13;;;14.60;60.60;;;;;;4114157;28;20106;-76
2023/12/25 15:13:45;;;;;;;2.83;0.70;;;14.00;62.00;;;;;;4112381;28;20046;-80
2023/12/25 15:15:47;;;;;;;1.65;0.70;;;13.40;64.10;;;;;;4114006;28;20051;-79
2023/12/25 15:17:50;;;;;;;1.50;0.52;;;12.90;65.90;;;;;;4114062;28;20051;-78
2023/12/25 15:19:51;;;;;;;2.70;0.70;;;12.60;67.20;;;;;;4110527;28;20106;-78
2023/12/25 15:21:53;;;;;;;2.28;0.95;;;12.50;67.60;;;;;;4110647;28;20054;-79
2023/12/25 15:23:55;;;;;;;1.45;0.60;;;12.30;68.20;;;;;;4113760;28;20456;-80
2023/12/25 15:25:57;;;;;;;1.88;0.80;;;12.10;69.00;;;;;;4103950;28;20057;-79
2023/12/25 15:27:58;;;;;;;1.77;0.75;;;11.90;70.00;;;;;;4098593;28;20059;-77
2023/12/25 15:30:00;;;;;;;2.35;0.70;;;11.90;70.20;;;;;;4113845;28;20463;-80
2023/12/25 15:32:02;;;;;;;1.73;0.50;;;11.80;70.40;;;;;;4111870;28;20090;-78
2023/12/25 15:34:06;;;;;;;2.38;0.80;;;11.70;70.80;;;;;;4112279;28;20476;-82
2023/12/25 15:36:09;;;;;;;1.17;0.50;;;11.70;70.90;;;;;;4109302;28;20059;-76
2023/12/25 15:38:11;;;;;;;1.77;0.70;;;11.70;70.90;;;;;;4105313;28;20150;-80
2023/12/25 15:40:13;;;;;;;1.75;0.70;;;11.70;71.00;;;;;;4107021;28;20098;-78
2023/12/25 15:42:14;;;;;;;2.42;0.70;;;11.70;70.90;;;;;;4102872;28;20655;-78
2023/12/25 15:44:16;;;;;;;1.35;0.50;;;11.60;71.00;;;;;;4097879;29;20047;-78
2023/12/25 15:46:17;;;;;;;2.30;0.80;;;11.60;71.20;;;;;;4097744;29;20051;-79
2023/12/25 15:48:19;;;;;;;2.00;0.75;;;11.60;71.40;;;;;;4104336;28;20051;-76
2023/12/25 15:50:22;;;;;;;3.15;0.82;;;11.60;71.70;;;;;;4111745;28;20543;-77
2023/12/25 15:52:24;;;;;;;2.03;0.80;;;11.60;71.70;;;;;;4113523;28;20050;-80
2023/12/25 15:54:26;;;;;;;1.70;0.60;;;11.60;71.20;;;;;;4113440;28;20109;-79
2023/12/25 15:56:28;;;;;;;2.17;0.80;;;11.50;71.10;;;;;;4110464;28;20208;-80
2023/12/25 15:58:29;;;;;;;1.48;0.60;;;11.50;71.30;;;;;;4097735;29;20148;-79
2023/12/25 16:00:31;;;;;;;2.25;0.70;;;11.50;71.40;;;;;;4097001;29;20106;-81
2023/12/25 16:02:32;;;;;;;1.75;0.60;;;11.40;71.50;;;;;;4096365;29;20051;-82
2023/12/25 16:04:34;;;;;;;1.95;0.70;;;11.40;71.50;;;;;;4093965;28;20073;-78
2023/12/25 16:06:39;;;;;;;2.13;0.65;;;11.30;71.60;;;;;;4097751;29;20063;-81
2023/12/25 16:08:40;;;;;;;2.20;0.70;;;11.30;71.70;;;;;;4096950;28;20055;-79
2023/12/25 16:10:42;;;;;;;2.30;0.70;;;11.30;71.70;;;;;;4096732;29;20544;-80
2023/12/25 16:12:44;;;;;;;2.40;0.75;;;11.30;71.60;;;;;;4095071;28;20059;-79
2023/12/25 16:14:46;;;;;;;3.10;1.08;;;11.30;71.50;;;;;;4101500;28;20051;-79
2023/12/25 16:16:48;;;;;;;2.28;0.70;;;11.30;71.40;;;;;;4097467;28;20059;-81
2023/12/25 16:18:49;;;;;;;2.90;0.82;;;11.30;71.30;;;;;;4098861;29;20453;-80
2023/12/25 16:20:51;;;;;;;1.20;0.68;;;11.20;71.30;;;;;;4100850;29;20059;-79
2023/12/25 16:22:54;;;;;;;2.45;0.90;;;11.20;71.40;;;;;;4099544;29;20676;-81
2023/12/25 16:24:56;;;;;;;2.30;0.80;;;11.20;71.50;;;;;;4100368;29;20047;-82
2023/12/25 16:26:58;;;;;;;2.05;0.88;;;11.20;71.50;;;;;;4084568;29;20119;-83
2023/12/25 16:28:59;;;;;;;2.38;0.80;;;11.20;71.40;;;;;;4101271;29;20493;-83
2023/12/25 16:31:00;;;;;;;2.22;0.80;;;11.20;71.50;;;;;;4100739;29;20090;-81
2023/12/25 16:33:03;;;;;;;2.28;0.90;;;11.20;71.50;;;;;;4099805;29;20043;-81
2023/12/25 16:35:06;;;;;;;1.70;0.80;;;11.20;71.40;;;;;;4100088;29;20054;-81
2023/12/25 16:37:08;;;;;;;2.95;0.80;;;11.20;71.40;;;;;;4100908;29;20094;-81
2023/12/25 16:39:11;;;;;;;2.97;0.93;;;11.10;71.40;;;;;;4103818;28;20083;-81